Time;durP1;ratioP1;P1;durP2;ratioP2;P2;SDS_P1;SDS_P2;PMS_P1;PMS_P2;Temp;Humidity;BMP_temperature;BMP_pressure;BME280_temperature;BME280_humidity;BME280_pressure;Samples;Min_cycle;Max_cycle;Signal;HPM_P1;HPM_P2
2021/04/15 00:01:43;;;;;;;0.20;0.20;;;;;;;9.19;43.29;98995.09;5092812;28;20024;-59
2021/04/15 00:04:10;;;;;;;3.92;0.45;;;;;;;9.12;43.47;98992.41;5092608;28;20036;-59
2021/04/15 00:06:36;;;;;;;0.10;0.10;;;;;;;9.05;43.62;98986.94;5095720;28;20082;-59
2021/04/15 00:09:11;;;;;;;0.13;0.13;;;;;;;8.97;43.78;98980.91;5096879;28;20068;-58
2021/04/15 00:11:38;;;;;;;0.20;0.20;;;;;;;8.91;43.88;98994.41;5096893;28;20441;-59
2021/04/15 00:14:06;;;;;;;0.10;0.10;;;;;;;8.89;43.93;98995.69;5097160;28;20044;-59
2021/04/15 00:16:33;;;;;;;0.20;0.20;;;;;;;8.86;43.99;98996.13;5096874;28;20024;-60
2021/04/15 00:18:59;;;;;;;0.10;0.10;;;;;;;8.83;44.20;98985.63;5096748;28;20032;-59
2021/04/15 00:21:26;;;;;;;0.55;0.55;;;;;;;8.79;44.29;98987.97;5096571;28;20024;-59
2021/04/15 00:23:52;;;;;;;0.10;0.10;;;;;;;8.80;44.22;98986.06;5096553;28;20024;-59
2021/04/15 00:26:21;;;;;;;0.20;0.20;;;;;;;8.78;44.25;98983.53;5096363;28;20032;-58
2021/04/15 00:28:51;;;;;;;0.40;0.40;;;;;;;8.76;44.35;98988.41;5096640;28;20388;-59
2021/04/15 00:31:18;;;;;;;0.22;0.22;;;;;;;8.76;44.34;98991.16;5096433;28;20040;-59
2021/04/15 00:33:44;;;;;;;0.20;0.20;;;;;;;8.75;44.38;98987.56;5096525;28;20401;-57
2021/04/15 00:36:10;;;;;;;0.20;0.20;;;;;;;8.77;44.44;98984.59;5096185;28;20055;-59
2021/04/15 00:38:36;;;;;;;0.30;0.30;;;;;;;8.78;44.33;98986.28;5096172;28;20059;-60
2021/04/15 00:41:03;;;;;;;0.30;0.30;;;;;;;8.81;44.48;98985.00;5077850;28;20054;-59
2021/04/15 00:43:33;;;;;;;0.20;0.20;;;;;;;8.82;44.47;98981.19;5096172;28;20099;-59
2021/04/15 00:46:10;;;;;;;0.40;0.40;;;;;;;8.83;44.51;98980.97;5095883;28;20409;-59
2021/04/15 00:48:42;;;;;;;0.15;0.15;;;;;;;8.88;44.48;98983.06;5096594;28;20032;-59
2021/04/15 00:51:18;;;;;;;0.20;0.20;;;;;;;8.92;44.33;98992.50;5095887;28;20028;-60
2021/04/15 00:53:50;;;;;;;0.20;0.20;;;;;;;8.95;44.35;98986.59;5096081;28;20031;-59
2021/04/15 00:56:17;;;;;;;0.20;0.20;;;;;;;8.99;44.14;98976.88;5095973;28;20040;-59
2021/04/15 00:58:43;;;;;;;0.20;0.20;;;;;;;9.03;44.22;98971.81;5095980;28;20039;-59
2021/04/15 01:01:10;;;;;;;0.20;0.20;;;;;;;9.03;44.18;98967.16;5095690;28;20128;-58
2021/04/15 01:03:37;;;;;;;0.20;0.20;;;;;;;9.11;44.22;98966.06;5077467;28;20104;-59
2021/04/15 01:06:06;;;;;;;0.20;0.20;;;;;;;9.16;44.23;98963.50;5096064;28;20508;-58
2021/04/15 01:08:33;;;;;;;0.40;0.40;;;;;;;9.22;44.20;98956.28;5095492;28;20028;-60
2021/04/15 01:11:17;;;;;;;0.20;0.20;;;;;;;9.29;44.17;98955.19;5095746;28;20127;-59
2021/04/15 01:13:59;;;;;;;0.68;0.68;;;;;;;9.39;44.01;98956.56;5095443;28;20032;-59
2021/04/15 01:16:55;;;;;;;0.10;0.10;;;;;;;9.50;43.89;98960.50;5095074;28;20036;-60
2021/04/15 01:19:45;;;;;;;0.32;0.30;;;;;;;9.61;43.80;98955.13;5095340;28;20398;-59
2021/04/15 01:22:20;;;;;;;0.20;0.20;;;;;;;9.70;43.64;98952.94;5095432;28;20043;-59
2021/04/15 01:24:59;;;;;;;0.20;0.20;;;;;;;9.78;43.68;98952.63;5077087;28;20038;-58
2021/04/15 01:27:38;;;;;;;0.38;0.38;;;;;;;9.88;43.48;98949.38;5095691;28;20362;-60
2021/04/15 01:30:06;;;;;;;0.20;0.20;;;;;;;10.00;43.41;98960.44;5095423;28;20035;-61
2021/04/15 01:32:41;;;;;;;0.13;0.13;;;;;;;10.10;43.38;98958.00;5095600;28;20036;-59
2021/04/15 01:35:19;;;;;;;0.10;0.10;;;;;;;10.23;43.33;98953.41;5095406;28;20505;-60
2021/04/15 01:37:56;;;;;;;0.70;0.38;;;;;;;10.33;43.14;98957.34;5110280;28;20059;-59
2021/04/15 01:40:35;;;;;;;0.20;0.20;;;;;;;10.44;43.02;98965.88;5076805;28;20511;-59
2021/04/15 01:43:13;;;;;;;0.10;0.10;;;;;;;10.55;43.13;98959.59;5095165;28;20040;-60
2021/04/15 01:45:39;;;;;;;0.10;0.10;;;;;;;10.68;42.83;98962.16;5095162;28;20042;-60
2021/04/15 01:48:08;;;;;;;0.10;0.10;;;;;;;10.84;42.83;98957.94;5064242;28;20032;-59
2021/04/15 01:50:47;;;;;;;0.10;0.10;;;;;;;11.01;42.59;98949.88;5082463;28;20032;-60
2021/04/15 01:53:20;;;;;;;0.20;0.20;;;;;;;11.33;42.49;98948.75;5086289;28;20047;-60
2021/04/15 01:56:02;;;;;;;0.10;0.10;;;;;;;12.23;41.00;98942.06;5089021;28;20081;-63
2021/04/15 01:59:03;;;;;;;0.13;0.13;;;;;;;13.76;38.58;98938.81;5092062;28;20043;-59
2021/04/15 02:01:35;;;;;;;0.20;0.20;;;;;;;14.94;37.51;98945.03;5081934;28;20062;-61
2021/04/15 02:04:06;;;;;;;0.20;0.20;;;;;;;15.90;36.12;98940.63;5048390;28;20056;-61
2021/04/15 02:06:35;;;;;;;0.40;0.35;;;;;;;16.59;35.91;98944.31;5082240;28;20031;-60
2021/04/15 02:09:07;;;;;;;0.10;0.10;;;;;;;17.25;35.26;98931.75;5091368;28;20020;-59
2021/04/15 02:11:46;;;;;;;0.10;0.10;;;;;;;17.91;34.70;98930.94;5084836;28;20032;-58
2021/04/15 02:14:17;;;;;;;0.10;0.10;;;;;;;18.41;34.42;98931.06;5090276;28;20424;-60
2021/04/15 02:16:47;;;;;;;0.10;0.10;;;;;;;18.88;34.30;98929.75;5081606;28;20148;-61
2021/04/15 02:19:24;;;;;;;0.10;0.10;;;;;;;19.31;34.15;98928.38;5082862;28;20497;-61
2021/04/15 02:21:57;;;;;;;0.10;0.10;;;;;;;19.77;33.85;98928.00;5083307;28;20055;-59
2021/04/15 02:24:51;;;;;;;0.10;0.10;;;;;;;20.35;33.73;98926.34;5091805;28;20036;-61
2021/04/15 02:27:22;;;;;;;0.10;0.10;;;;;;;20.79;33.32;98914.91;5088780;28;20031;-59
2021/04/15 02:29:53;;;;;;;0.10;0.10;;;;;;;21.27;33.05;98919.50;5088492;28;20035;-60
2021/04/15 02:32:25;;;;;;;0.10;0.10;;;;;;;21.65;33.13;98919.47;5086743;28;20035;-61
2021/04/15 02:35:04;;;;;;;0.20;0.20;;;;;;;22.19;32.93;98913.50;5075458;28;20032;-59
2021/04/15 02:37:43;;;;;;;0.43;0.43;;;;;;;22.69;32.50;98905.22;5107515;28;20412;-60
2021/04/15 02:40:17;;;;;;;0.20;0.20;;;;;;;23.06;32.16;98900.44;5096543;28;20028;-61
2021/04/15 02:42:45;;;;;;;0.10;0.10;;;;;;;23.32;32.17;98911.09;5111117;28;20450;-61
2021/04/15 02:45:37;;;;;;;0.10;0.10;;;;;;;23.49;32.29;98907.59;5109939;28;20032;-60
2021/04/15 02:48:21;;;;;;;0.10;0.10;;;;;;;23.62;32.40;98905.88;5106971;28;20405;-60
2021/04/15 02:50:48;;;;;;;0.20;0.20;;;;;;;23.77;32.57;98910.25;5094098;28;20040;-60
2021/04/15 02:53:22;;;;;;;0.10;0.10;;;;;;;24.09;32.42;98895.13;5100145;28;20031;-60
2021/04/15 02:56:11;;;;;;;0.10;0.10;;;;;;;24.42;31.94;98893.91;5114381;28;20032;-60
2021/04/15 02:58:45;;;;;;;0.10;0.10;;;;;;;24.78;31.84;98882.50;5031850;28;20045;-59
2021/04/15 03:01:16;;;;;;;0.40;0.40;;;;;;;25.16;31.40;98890.28;5031487;28;20049;-60
2021/04/15 03:03:46;;;;;;;0.10;0.10;;;;;;;25.56;31.43;98889.31;5031622;28;20399;-65
2021/04/15 03:06:17;;;;;;;0.10;0.10;;;;;;;26.18;30.51;98876.75;5031053;28;20037;-59
2021/04/15 03:08:45;;;;;;;0.10;0.10;;;;;;;26.14;31.02;98878.56;5021248;28;20530;-60
2021/04/15 03:11:22;;;;;;;0.70;0.52;;;;;;;26.10;31.30;98877.59;5030745;28;20107;-59
2021/04/15 03:13:54;;;;;;;0.03;0.03;;;;;;;26.23;31.09;98870.09;5031212;28;20034;-60
2021/04/15 03:16:25;;;;;;;0.10;0.10;;;;;;;26.35;31.31;98867.41;5030877;28;20072;-60
2021/04/15 03:19:00;;;;;;;0.15;0.15;;;;;;;26.34;31.39;98870.53;5014268;28;20398;-59
2021/04/15 03:21:48;;;;;;;0.20;0.20;;;;;;;26.43;31.14;98860.06;5014039;28;20034;-59
2021/04/15 03:24:23;;;;;;;0.10;0.10;;;;;;;26.71;30.94;98863.25;5025297;28;20546;-60
2021/04/15 03:27:02;;;;;;;0.10;0.10;;;;;;;27.03;31.00;98852.41;5030701;28;20125;-60
2021/04/15 03:29:32;;;;;;;0.10;0.10;;;;;;;27.27;30.56;98857.34;5030326;28;20176;-59
2021/04/15 03:32:09;;;;;;;0.10;0.10;;;;;;;27.30;30.63;98849.34;5029705;28;20115;-59
2021/04/15 03:34:51;;;;;;;0.10;0.10;;;;;;;27.40;30.93;98854.59;5033998;28;20128;-60
2021/04/15 03:37:28;;;;;;;0.32;0.32;;;;;;;27.60;30.83;98853.72;5069603;28;20051;-60
2021/04/15 03:39:56;;;;;;;0.10;0.10;;;;;;;27.78;30.43;98854.38;5090848;28;20032;-60
2021/04/15 03:42:43;;;;;;;0.20;0.20;;;;;;;27.76;30.63;98856.72;5092816;28;20096;-60
2021/04/15 03:45:38;;;;;;;0.10;0.10;;;;;;;27.90;30.24;98849.91;5092775;28;20063;-59
2021/04/15 03:48:11;;;;;;;0.10;0.10;;;;;;;28.05;30.13;98846.44;5050694;28;20049;-61
2021/04/15 03:51:03;;;;;;;0.10;0.10;;;;;;;28.19;30.40;98842.47;5051088;28;20594;-60
2021/04/15 03:53:37;;;;;;;0.20;0.20;;;;;;;28.14;30.30;98832.22;5050355;28;20052;-60
2021/04/15 03:56:07;;;;;;;0.10;0.10;;;;;;;28.41;30.34;98839.16;5050762;28;20053;-60
2021/04/15 03:58:43;;;;;;;0.10;0.10;;;;;;;28.37;30.21;98832.59;5050172;28;20146;-59
2021/04/15 04:01:21;;;;;;;0.20;0.20;;;;;;;28.48;30.18;98830.91;5050250;28;20063;-60
2021/04/15 04:04:12;;;;;;;0.10;0.10;;;;;;;28.67;29.90;98838.81;5050208;28;20043;-61
2021/04/15 04:06:42;;;;;;;0.03;0.03;;;;;;;29.16;29.70;98825.75;5010895;28;20085;-59
2021/04/15 04:09:23;;;;;;;0.20;0.20;;;;;;;29.53;29.02;98828.44;5010249;28;20459;-59
2021/04/15 04:11:51;;;;;;;0.10;0.10;;;;;;;29.57;29.31;98826.53;5011234;28;20495;-60
2021/04/15 04:14:25;;;;;;;0.20;0.20;;;;;;;29.85;29.04;98822.84;5010862;28;20076;-61
2021/04/15 04:17:00;;;;;;;0.22;0.22;;;;;;;29.67;29.34;98813.88;5010956;28;20117;-60
2021/04/15 04:19:35;;;;;;;0.20;0.20;;;;;;;27.87;31.16;98799.81;5010751;28;20042;-59
2021/04/15 04:22:29;;;;;;;0.20;0.20;;;;;;;25.54;34.51;98804.47;5010278;28;20054;-59
2021/04/15 04:25:06;;;;;;;0.32;0.32;;;;;;;23.74;36.10;98802.38;5019867;28;20057;-60
2021/04/15 04:27:40;;;;;;;0.10;0.10;;;;;;;22.52;37.71;98805.09;5028881;28;20033;-59
2021/04/15 04:30:06;;;;;;;0.10;0.10;;;;;;;21.73;38.30;98805.34;5017389;28;20038;-60
2021/04/15 04:32:33;;;;;;;0.40;0.40;;;;;;;21.07;38.37;98808.13;5030013;28;20037;-60
2021/04/15 04:35:01;;;;;;;0.20;0.20;;;;;;;20.64;38.75;98806.25;5030036;28;20025;-60
2021/04/15 04:37:42;;;;;;;0.10;0.10;;;;;;;20.19;38.87;98808.59;5029880;28;20103;-60
2021/04/15 04:40:18;;;;;;;0.10;0.10;;;;;;;19.74;38.72;98795.72;5029946;28;20546;-60
2021/04/15 04:42:50;;;;;;;0.75;0.35;;;;;;;19.37;38.86;98808.31;5035261;28;20053;-60
2021/04/15 04:45:17;;;;;;;0.70;0.70;;;;;;;19.14;38.69;98797.97;5071967;28;20032;-59
2021/04/15 04:47:51;;;;;;;0.10;0.10;;;;;;;18.96;38.40;98802.28;5071839;28;20166;-60
2021/04/15 04:50:32;;;;;;;0.17;0.17;;;;;;;18.85;38.00;98802.34;5072228;28;20029;-60
2021/04/15 04:53:05;;;;;;;0.28;0.20;;;;;;;18.76;37.97;98794.91;5073970;28;20040;-61
2021/04/15 04:55:47;;;;;;;0.20;0.20;;;;;;;18.69;37.87;98792.44;5075537;28;20035;-60
2021/04/15 04:58:19;;;;;;;0.10;0.10;;;;;;;18.58;37.51;98790.84;5075509;28;20040;-60
2021/04/15 05:00:50;;;;;;;0.20;0.20;;;;;;;18.48;37.50;98783.44;5075541;28;20510;-59
2021/04/15 05:03:22;;;;;;;0.10;0.10;;;;;;;18.39;37.64;98783.19;5075602;28;20036;-59
2021/04/15 05:05:48;;;;;;;0.75;0.30;;;;;;;18.31;37.35;98769.91;5074058;28;20386;-60
2021/04/15 05:08:28;;;;;;;0.10;0.10;;;;;;;18.27;37.32;98768.81;5075182;28;20471;-58
2021/04/15 05:10:56;;;;;;;0.20;0.20;;;;;;;18.22;37.14;98769.66;5075734;28;20081;-60
2021/04/15 05:13:25;;;;;;;0.10;0.10;;;;;;;18.16;37.07;98765.25;5075162;28;20104;-60
2021/04/15 05:15:53;;;;;;;0.57;0.50;;;;;;;18.12;36.81;98762.22;5073939;28;20074;-59
2021/04/15 05:18:21;;;;;;;0.10;0.10;;;;;;;18.11;36.83;98760.56;5075239;28;20040;-59
2021/04/15 05:20:48;;;;;;;0.22;0.22;;;;;;;18.11;36.81;98757.78;5075456;28;20031;-59
2021/04/15 05:23:22;;;;;;;0.40;0.40;;;;;;;18.12;36.70;98764.97;5075659;28;20119;-61
2021/04/15 05:26:14;;;;;;;0.10;0.10;;;;;;;18.15;36.49;98763.59;5075109;28;20112;-60
2021/04/15 05:28:41;;;;;;;0.20;0.20;;;;;;;18.19;36.26;98757.16;5073739;28;20112;-59
2021/04/15 05:31:13;;;;;;;0.38;0.30;;;;;;;18.21;36.23;98756.88;5075154;28;20036;-60
2021/04/15 05:33:40;;;;;;;0.10;0.10;;;;;;;18.29;36.24;98759.06;5074807;28;20037;-59
2021/04/15 05:36:20;;;;;;;0.10;0.10;;;;;;;18.28;36.06;98748.25;5074635;28;20032;-60
2021/04/15 05:38:49;;;;;;;0.10;0.10;;;;;;;18.22;36.04;98758.56;5075253;28;20036;-60
2021/04/15 05:41:35;;;;;;;0.10;0.10;;;;;;;18.18;36.33;98743.56;5074958;28;20115;-60
2021/04/15 05:44:24;;;;;;;0.13;0.13;;;;;;;18.18;36.11;98744.41;5074357;28;20048;-59
2021/04/15 05:46:52;;;;;;;0.10;0.10;;;;;;;18.26;36.13;98740.19;5056743;28;20060;-59
2021/04/15 05:49:32;;;;;;;0.10;0.10;;;;;;;18.33;35.71;98734.28;5057009;28;20151;-59
2021/04/15 05:52:32;;;;;;;0.95;0.90;;;;;;;18.35;35.70;98732.91;5056485;28;20035;-60
2021/04/15 05:55:05;;;;;;;0.10;0.10;;;;;;;18.29;35.65;98733.22;5074759;28;20044;-59
2021/04/15 05:57:37;;;;;;;0.20;0.20;;;;;;;18.23;35.72;98735.22;5074706;28;20040;-59
2021/04/15 06:00:21;;;;;;;0.10;0.10;;;;;;;18.21;35.95;98738.28;5074871;28;20301;-59
2021/04/15 06:02:57;;;;;;;;;;;;;;;18.23;35.95;98731.59;5074719;28;20032;-60
2021/04/15 06:05:59;;;;;;;0.10;0.10;;;;;;;18.23;35.90;98734.34;5074208;28;19920;-62
2021/04/15 06:08:29;;;;;;;0.20;0.20;;;;;;;18.25;35.72;98721.84;5074231;28;20082;-60
2021/04/15 06:11:07;;;;;;;0.30;0.30;;;;;;;18.31;35.27;98731.81;5074552;28;20032;-60
2021/04/15 06:13:51;;;;;;;0.10;0.10;;;;;;;18.39;35.33;98724.81;5090192;28;20481;-60
2021/04/15 06:16:25;;;;;;;0.57;0.57;;;;;;;18.42;35.40;98718.69;5074499;28;20036;-59
2021/04/15 06:18:59;;;;;;;0.10;0.10;;;;;;;18.48;35.41;98713.94;5074321;28;20393;-61
2021/04/15 06:21:28;;;;;;;0.10;0.10;;;;;;;18.49;35.26;98716.41;5074579;28;20028;-60
2021/04/15 06:23:59;;;;;;;0.10;0.10;;;;;;;18.49;35.24;98705.28;5074106;28;20443;-60
2021/04/15 06:26:44;;;;;;;0.35;0.35;;;;;;;18.53;35.14;98711.91;5074025;28;20036;-60
2021/04/15 06:29:37;;;;;;;0.10;0.10;;;;;;;18.61;35.21;98712.41;5077663;28;20178;-60
2021/04/15 06:32:04;;;;;;;0.10;0.10;;;;;;;18.58;35.11;98708.28;5085400;28;20063;-60
2021/04/15 06:34:32;;;;;;;0.10;0.10;;;;;;;18.58;35.02;98707.44;5080850;28;20035;-60
2021/04/15 06:37:14;;;;;;;0.10;0.10;;;;;;;18.63;35.22;98693.50;5080885;28;20048;-60
2021/04/15 06:40:26;;;;;;;0.10;0.10;;;;;;;18.67;35.23;98695.41;5079738;28;20036;-60
2021/04/15 06:43:08;;;;;;;0.10;0.10;;;;;;;18.68;35.02;98685.97;5091128;28;20028;-59
2021/04/15 06:45:52;;;;;;;0.10;0.10;;;;;;;18.73;35.06;98685.06;5090538;28;20040;-60
2021/04/15 06:48:17;;;;;;;;;;;;;;;18.78;34.97;98700.88;5087680;28;20032;-59
2021/04/15 06:51:08;;;;;;;0.10;0.10;;;;;;;18.80;34.94;98691.13;5073375;28;19923;-60
2021/04/15 06:54:07;;;;;;;0.10;0.10;;;;;;;18.82;34.87;98694.44;5091418;28;20604;-59
2021/04/15 06:56:55;;;;;;;0.10;0.10;;;;;;;18.88;34.85;98686.91;5091310;28;20154;-60
2021/04/15 06:59:45;;;;;;;1.58;0.35;;;;;;;18.95;34.90;98692.13;5081736;28;20067;-59
2021/04/15 07:02:45;;;;;;;0.10;0.10;;;;;;;18.99;34.73;98685.69;5091718;28;20062;-58
2021/04/15 07:05:23;;;;;;;0.15;0.15;;;;;;;19.05;34.78;98678.94;5091542;28;20482;-60
2021/04/15 07:08:27;;;;;;;0.10;0.10;;;;;;;19.13;34.61;98673.88;5081278;28;20033;-60
2021/04/15 07:11:08;;;;;;;0.10;0.10;;;;;;;19.13;34.69;98671.91;4999558;28;20041;-59
2021/04/15 07:13:40;;;;;;;0.57;0.57;;;;;;;19.13;34.53;98665.53;5005824;28;20050;-60
2021/04/15 07:16:53;;;;;;;0.10;0.10;;;;;;;19.11;34.86;98676.94;5007560;28;20034;-58
2021/04/15 07:19:46;;;;;;;0.13;0.13;;;;;;;19.07;34.73;98671.13;4946625;29;20055;-59
2021/04/15 07:22:52;;;;;;;0.20;0.20;;;;;;;19.07;34.86;98671.13;4941846;29;20050;-61
2021/04/15 07:25:49;;;;;;;0.10;0.10;;;;;;;19.13;34.54;98663.56;4948967;29;20043;-59
2021/04/15 07:28:39;;;;;;;0.10;0.10;;;;;;;19.17;34.68;98661.84;4949653;29;20513;-59
2021/04/15 07:31:33;;;;;;;0.10;0.10;;;;;;;19.16;34.48;98653.81;4951075;29;20041;-60
2021/04/15 07:34:20;;;;;;;0.10;0.10;;;;;;;19.17;34.61;98642.38;4943185;29;20510;-59
2021/04/15 07:37:14;;;;;;;0.40;0.40;;;;;;;19.18;34.83;98624.53;4946876;28;20044;-60
2021/04/15 07:40:05;;;;;;;0.20;0.20;;;;;;;19.18;34.65;98632.88;4945621;29;20158;-62
2021/04/15 07:43:07;;;;;;;0.10;0.10;;;;;;;19.19;34.60;98639.28;4938864;29;20109;-60
2021/04/15 07:46:10;;;;;;;0.20;0.20;;;;;;;19.18;34.79;98637.63;4949756;29;20480;-59
2021/04/15 07:49:21;;;;;;;0.10;0.10;;;;;;;19.23;34.60;98627.25;5010389;28;20403;-59
2021/04/15 07:52:19;;;;;;;0.20;0.20;;;;;;;19.34;34.39;98624.34;4978660;28;20026;-61
2021/04/15 07:55:17;;;;;;;0.10;0.10;;;;;;;19.38;34.34;98623.47;4988837;28;20041;-58
2021/04/15 07:57:48;;;;;;;0.10;0.10;;;;;;;19.45;34.34;98628.69;5014146;28;20050;-61
2021/04/15 08:00:35;;;;;;;0.13;0.13;;;;;;;19.48;34.27;98630.88;5002190;28;21454;-60
2021/04/15 08:03:04;;;;;;;0.30;0.30;;;;;;;19.50;34.42;98623.03;5020755;28;20076;-58
2021/04/15 08:05:47;;;;;;;0.10;0.10;;;;;;;19.54;34.36;98632.44;5011943;28;20037;-60
2021/04/15 08:08:19;;;;;;;0.40;0.40;;;;;;;19.58;34.22;98629.88;5017489;28;20030;-59
2021/04/15 08:11:03;;;;;;;0.10;0.10;;;;;;;19.58;34.32;98630.72;5018842;28;20048;-59
2021/04/15 08:13:40;;;;;;;0.10;0.10;;;;;;;19.58;34.23;98627.94;5018156;28;20041;-61
2021/04/15 08:16:37;;;;;;;0.10;0.10;;;;;;;19.61;34.29;98612.59;5006740;28;20161;-61
2021/04/15 08:19:12;;;;;;;0.40;0.40;;;;;;;19.59;34.33;98624.00;5003566;28;20045;-60
2021/04/15 08:22:13;;;;;;;0.35;0.35;;;;;;;19.61;34.18;98612.59;5025436;28;20047;-60
2021/04/15 08:24:53;;;;;;;0.10;0.10;;;;;;;19.59;34.12;98593.38;5061474;28;20069;-61
2021/04/15 08:27:41;;;;;;;0.10;0.10;;;;;;;19.59;33.99;98598.13;5083685;28;20040;-60
2021/04/15 08:30:22;;;;;;;0.15;0.15;;;;;;;19.57;34.20;98601.22;5095243;28;20392;-58
2021/04/15 08:33:15;;;;;;;0.30;0.30;;;;;;;19.57;33.97;98604.00;5092779;28;20035;-60
2021/04/15 08:35:49;;;;;;;0.20;0.20;;;;;;;19.61;33.88;98596.72;5094372;28;20036;-58
2021/04/15 08:38:36;;;;;;;0.10;0.10;;;;;;;19.61;33.89;98580.00;5094868;28;20585;-60
2021/04/15 08:41:14;;;;;;;0.10;0.10;;;;;;;19.59;33.93;98585.03;5095626;28;20039;-60
2021/04/15 08:44:31;;;;;;;0.10;0.10;;;;;;;19.59;33.84;98571.09;5104602;28;20028;-61
2021/04/15 08:47:14;;;;;;;0.28;0.28;;;;;;;19.62;33.76;98575.25;5021858;28;20200;-60
2021/04/15 08:49:51;;;;;;;0.17;0.17;;;;;;;19.63;33.61;98571.34;5011669;28;20045;-59
2021/04/15 08:52:17;;;;;;;0.30;0.30;;;;;;;19.66;33.62;98581.06;4997135;28;20037;-59
2021/04/15 08:54:49;;;;;;;0.10;0.10;;;;;;;19.68;33.51;98564.88;5001501;28;20085;-61
2021/04/15 08:57:26;;;;;;;0.10;0.10;;;;;;;19.69;33.49;98555.38;5000325;28;20100;-62
2021/04/15 09:00:07;;;;;;;0.10;0.10;;;;;;;19.68;33.34;98562.91;5018870;28;20037;-60
2021/04/15 09:03:14;;;;;;;0.35;0.35;;;;;;;19.69;33.22;98549.81;5021426;28;20042;-60
2021/04/15 09:05:58;;;;;;;0.10;0.10;;;;;;;19.76;33.26;98572.56;4904753;29;20538;-60
2021/04/15 09:08:54;;;;;;;0.20;0.20;;;;;;;19.79;33.10;98552.47;4907404;29;20045;-62
2021/04/15 09:12:05;;;;;;;0.10;0.10;;;;;;;19.81;33.05;98527.09;4905419;29;20060;-63
2021/04/15 09:14:43;;;;;;;0.10;0.10;;;;;;;19.85;32.98;98550.44;4902129;29;20036;-60
2021/04/15 09:17:16;;;;;;;0.10;0.10;;;;;;;19.88;32.82;98544.25;4906513;29;20074;-60
2021/04/15 09:20:02;;;;;;;0.38;0.10;;;;;;;19.90;32.86;98545.59;4906223;29;20624;-60
2021/04/15 09:22:40;;;;;;;0.10;0.10;;;;;;;19.94;32.93;98543.88;4931917;28;20054;-59
2021/04/15 09:25:30;;;;;;;0.25;0.25;;;;;;;19.92;32.80;98529.41;4965555;28;20030;-59
2021/04/15 09:28:38;;;;;;;0.10;0.10;;;;;;;19.94;32.61;98529.13;4967526;28;20137;-61
2021/04/15 09:31:24;;;;;;;0.10;0.10;;;;;;;19.94;32.49;98535.50;4923212;29;20066;-58
2021/04/15 09:33:59;;;;;;;0.10;0.10;;;;;;;19.97;32.48;98533.25;4924850;29;20036;-59
2021/04/15 09:36:37;;;;;;;0.10;0.10;;;;;;;19.98;32.36;98520.97;4930266;29;20129;-60
2021/04/15 09:39:30;;;;;;;0.10;0.10;;;;;;;19.98;32.27;98524.59;4953151;28;20618;-59
2021/04/15 09:42:07;;;;;;;0.10;0.10;;;;;;;20.00;32.25;98535.44;4962626;28;20049;-59
2021/04/15 09:45:01;;;;;;;0.20;0.20;;;;;;;20.01;32.17;98526.78;5031400;28;20042;-61
2021/04/15 09:47:41;;;;;;;0.10;0.10;;;;;;;20.02;32.04;98516.44;5030582;28;20033;-59
2021/04/15 09:50:56;;;;;;;0.10;0.10;;;;;;;20.03;31.97;98516.13;5025771;28;20145;-62
2021/04/15 09:53:50;;;;;;;0.10;0.10;;;;;;;20.05;31.73;98513.03;4969095;28;20047;-60
2021/04/15 09:56:35;;;;;;;0.10;0.10;;;;;;;20.11;31.54;98509.03;4972814;28;20065;-58
2021/04/15 09:59:18;;;;;;;;;;;;;;;20.15;31.75;98509.25;4972288;28;20027;-59
2021/04/15 10:01:52;;;;;;;0.10;0.10;;;;;;;20.18;31.64;98492.75;4969459;28;20252;-59
2021/04/15 10:04:42;;;;;;;0.10;0.10;;;;;;;20.22;31.38;98498.53;4971599;28;20080;-59
2021/04/15 10:07:14;;;;;;;0.20;0.20;;;;;;;20.26;31.35;98508.78;4972479;28;20050;-58
2021/04/15 10:10:20;;;;;;;0.10;0.10;;;;;;;20.29;31.27;98497.00;4990945;28;20053;-59
2021/04/15 10:12:48;;;;;;;0.10;0.10;;;;;;;20.33;31.09;98477.69;4914043;29;20050;-59
2021/04/15 10:15:37;;;;;;;0.10;0.10;;;;;;;20.36;31.16;98490.19;4913993;29;20048;-58
2021/04/15 10:18:35;;;;;;;0.10;0.10;;;;;;;20.39;30.92;98475.63;4871027;29;20060;-60
2021/04/15 10:21:32;;;;;;;0.15;0.15;;;;;;;20.39;31.02;98489.56;4869790;29;20037;-60
2021/04/15 10:24:25;;;;;;;0.10;0.10;;;;;;;20.41;30.83;98493.72;4875020;29;20071;-59
2021/04/15 10:27:20;;;;;;;0.03;0.03;;;;;;;20.44;30.92;98492.28;4875579;29;20396;-59
2021/04/15 10:30:13;;;;;;;0.25;0.25;;;;;;;20.45;30.80;98479.97;4901267;29;20043;-60
2021/04/15 10:33:00;;;;;;;0.20;0.20;;;;;;;20.48;30.86;98491.34;4945083;29;20054;-60
2021/04/15 10:35:52;;;;;;;0.10;0.10;;;;;;;20.47;30.82;98486.91;4945665;29;20517;-58
2021/04/15 10:38:43;;;;;;;0.10;0.10;;;;;;;20.52;30.56;98485.97;4966711;28;20043;-59
2021/04/15 10:41:42;;;;;;;0.10;0.10;;;;;;;20.53;30.77;98492.41;4953996;28;20100;-59
2021/04/15 10:44:26;;;;;;;0.10;0.10;;;;;;;20.51;30.74;98470.41;4965467;28;20051;-59
2021/04/15 10:47:37;;;;;;;0.10;0.10;;;;;;;20.54;30.67;98474.50;4964391;28;20133;-59
2021/04/15 10:50:36;;;;;;;0.10;0.10;;;;;;;20.57;30.64;98476.69;5009894;28;20141;-60
2021/04/15 10:53:20;;;;;;;0.10;0.10;;;;;;;20.59;30.58;98468.84;5016698;28;20037;-59
2021/04/15 10:55:49;;;;;;;0.10;0.10;;;;;;;20.59;30.75;98460.47;5079473;28;20043;-59
2021/04/15 10:58:30;;;;;;;0.10;0.10;;;;;;;20.56;30.68;98466.69;5101208;28;20508;-58
2021/04/15 11:00:59;;;;;;;1.35;0.65;;;;;;;20.55;30.71;98463.03;5099528;28;20024;-60
2021/04/15 11:03:34;;;;;;;0.10;0.10;;;;;;;20.52;30.62;98438.56;5100673;27;20027;-60
2021/04/15 11:06:00;;;;;;;1.20;0.73;;;;;;;20.53;30.66;98459.75;5105519;28;20101;-60
2021/04/15 11:08:31;;;;;;;0.10;0.10;;;;;;;20.54;30.84;98453.03;5096681;28;20043;-60
2021/04/15 11:11:17;;;;;;;0.10;0.10;;;;;;;20.60;30.62;98445.41;5113148;28;20058;-60
2021/04/15 11:13:44;;;;;;;0.17;0.15;;;;;;;20.62;30.70;98452.31;5112880;28;20032;-59
2021/04/15 11:16:19;;;;;;;0.10;0.10;;;;;;;20.62;30.66;98438.34;5113931;28;20030;-59
2021/04/15 11:18:45;;;;;;;1.08;0.90;;;;;;;20.60;30.71;98435.06;5113230;28;20045;-60
2021/04/15 11:21:20;;;;;;;1.35;0.38;;;;;;;20.60;30.61;98420.28;5104929;28;20051;-62
2021/04/15 11:23:48;;;;;;;0.10;0.10;;;;;;;20.62;30.70;98423.59;5099417;28;20345;-59
2021/04/15 11:26:47;;;;;;;0.10;0.10;;;;;;;20.62;30.63;98432.78;5102707;28;20039;-59
2021/04/15 11:29:38;;;;;;;0.10;0.10;;;;;;;20.64;30.57;98436.09;5103741;28;20078;-58
2021/04/15 11:32:42;;;;;;;0.10;0.10;;;;;;;20.65;30.56;98425.75;5106229;28;20047;-60
2021/04/15 11:35:16;;;;;;;0.10;0.10;;;;;;;20.62;30.57;98427.19;5010555;28;20037;-60
2021/04/15 11:37:45;;;;;;;0.10;0.10;;;;;;;20.60;30.63;98425.88;4993256;28;20038;-60
2021/04/15 11:40:31;;;;;;;0.10;0.10;;;;;;;20.57;30.54;98407.78;5010469;28;20526;-58
2021/04/15 11:42:58;;;;;;;0.20;0.20;;;;;;;20.54;30.62;98414.00;5011256;28;20050;-58
2021/04/15 11:45:30;;;;;;;0.10;0.10;;;;;;;20.51;30.96;98411.81;5010543;28;20030;-59
2021/04/15 11:48:29;;;;;;;0.10;0.10;;;;;;;20.48;30.69;98412.44;5009800;28;20122;-59
2021/04/15 11:51:15;;;;;;;0.10;0.10;;;;;;;20.43;30.81;98418.13;4991227;28;20231;-59
2021/04/15 11:53:50;;;;;;;0.10;0.10;;;;;;;20.42;30.66;98413.66;4990053;28;20046;-58
2021/04/15 11:56:31;;;;;;;0.10;0.10;;;;;;;20.41;30.63;98404.47;4991391;28;20076;-59
2021/04/15 11:59:24;;;;;;;0.10;0.10;;;;;;;20.40;30.55;98407.59;4991087;28;20026;-58
2021/04/15 12:01:52;;;;;;;0.10;0.10;;;;;;;20.38;30.51;98402.31;4990177;28;20057;-59
2021/04/15 12:04:26;;;;;;;0.10;0.10;;;;;;;20.37;30.62;98411.00;4990114;28;20129;-59
2021/04/15 12:07:26;;;;;;;0.25;0.25;;;;;;;20.38;30.55;98412.66;4985256;28;20049;-59
2021/04/15 12:09:55;;;;;;;0.10;0.10;;;;;;;20.37;30.76;98406.22;4994985;28;20128;-59
2021/04/15 12:12:39;;;;;;;0.10;0.10;;;;;;;20.35;30.62;98407.69;5009756;28;20045;-60
2021/04/15 12:15:11;;;;;;;0.10;0.10;;;;;;;20.33;30.68;98402.41;5009313;28;20030;-59
2021/04/15 12:17:57;;;;;;;0.10;0.10;;;;;;;20.34;30.58;98406.84;5010367;28;20515;-61
2021/04/15 12:20:28;;;;;;;0.20;0.20;;;;;;;20.35;30.27;98399.34;5009695;28;20145;-60
2021/04/15 12:23:23;;;;;;;0.10;0.10;;;;;;;20.32;30.51;98398.00;5006503;28;20030;-61
2021/04/15 12:25:58;;;;;;;0.10;0.10;;;;;;;20.30;30.48;98392.72;5012180;28;20066;-60
2021/04/15 12:28:26;;;;;;;0.10;0.10;;;;;;;20.29;30.41;98388.28;5027930;28;20607;-61
2021/04/15 12:31:00;;;;;;;0.10;0.10;;;;;;;20.26;30.40;98388.91;5029028;28;20035;-59
2021/04/15 12:33:41;;;;;;;0.45;0.45;;;;;;;20.22;30.53;98370.31;5028327;28;20041;-60